Naxera, Virginia
Current Conditions -  °F | °C
As of 5:15 PM on Sunday 23 Nov 2014 (Local Time) from KW75 Reporting Station
Overcast Overcast  
Wind Chill: 50°   Ceiling: 5000
Heat Index: 50°   Visibility: 10mi
Dew Point: 45°   Wind: 5mph
Humidity: 83%   Direction: 150°SSE
Pressure: 30.09"   Gusts: NA
Location:  37.4386°N, 76.5499°W
Report Text: KW75 232215Z AUTO 15004KT 10SM SCT033 OVC050 10/07 A3009 RMK AO1 T01000072
Loading
Personal Weather Stations






























Interactive Weather Map New forecast layout! Learn more

10-Day Weather Forecast

Advertisements
Track Severe Weather on mobile